Time;durP1;ratioP1;P1;durP2;ratioP2;P2;SDS_P1;SDS_P2;PMS_P1;PMS_P2;Temp;Humidity;BMP_temperature;BMP_pressure;BME280_temperature;BME280_humidity;BME280_pressure;Samples;Min_cycle;Max_cycle;Signal;HPM_P1;HPM_P2
2021/09/18 00:00:37;;;;;;;21.33;12.30;;;;;;;;;;5030888;28;20041;-71
2021/09/18 00:03:41;;;;;;;21.00;13.60;;;;;;;;;;5030973;28;20049;-71
2021/09/18 00:06:45;;;;;;;22.02;13.13;;;;;;;;;;5030897;28;20393;-71
2021/09/18 00:09:50;;;;;;;25.05;13.73;;;;;;;;;;5030820;28;20072;-71
2021/09/18 00:12:54;;;;;;;24.50;13.20;;;;;;;;;;5030833;28;20105;-71
2021/09/18 00:15:59;;;;;;;21.20;12.70;;;;;;;;;;5030734;28;20082;-71
2021/09/18 00:19:03;;;;;;;23.52;13.25;;;;;;;;;;5030656;28;20508;-71
2021/09/18 00:22:07;;;;;;;22.15;13.07;;;;;;;;;;5030413;28;20377;-72
2021/09/18 00:25:12;;;;;;;23.67;12.93;;;;;;;;;;5030657;28;20499;-72
2021/09/18 00:28:16;;;;;;;27.10;13.20;;;;;;;;;;5029678;28;20539;-72
2021/09/18 00:31:20;;;;;;;24.63;13.32;;;;;;;;;;5029656;28;20045;-72
2021/09/18 00:34:24;;;;;;;25.38;12.85;;;;;;;;;;5030610;28;20099;-72
2021/09/18 00:37:29;;;;;;;22.17;13.45;;;;;;;;;;5030544;28;20401;-72
2021/09/18 00:40:33;;;;;;;18.33;12.15;;;;;;;;;;5030433;28;20049;-72
2021/09/18 00:43:38;;;;;;;24.48;12.55;;;;;;;;;;5030499;28;20043;-72
2021/09/18 00:46:42;;;;;;;17.27;12.02;;;;;;;;;;5030566;28;20044;-72
2021/09/18 00:49:46;;;;;;;29.05;12.10;;;;;;;;;;5030171;28;20049;-72
2021/09/18 00:52:51;;;;;;;20.50;11.60;;;;;;;;;;5030407;28;20059;-72
2021/09/18 00:55:55;;;;;;;19.00;12.00;;;;;;;;;;5032288;28;20045;-72
2021/09/18 00:58:59;;;;;;;22.40;11.48;;;;;;;;;;5034082;28;20519;-72
2021/09/18 01:02:04;;;;;;;16.67;11.60;;;;;;;;;;5034023;28;20045;-72
2021/09/18 01:05:09;;;;;;;20.08;11.45;;;;;;;;;;5034059;28;20052;-72
2021/09/18 01:08:13;;;;;;;18.30;11.95;;;;;;;;;;5033715;28;20048;-72
2021/09/18 01:11:17;;;;;;;19.98;11.73;;;;;;;;;;5033723;28;20044;-72
2021/09/18 01:14:22;;;;;;;21.60;12.02;;;;;;;;;;5034177;28;20060;-72
2021/09/18 01:17:26;;;;;;;19.55;11.02;;;;;;;;;;5033219;28;20501;-72
2021/09/18 01:20:31;;;;;;;23.13;11.70;;;;;;;;;;5033556;28;20037;-72
2021/09/18 01:23:35;;;;;;;17.60;11.73;;;;;;;;;;5033658;28;20056;-72
2021/09/18 01:26:39;;;;;;;22.25;12.55;;;;;;;;;;5033870;28;20377;-72
2021/09/18 01:29:45;;;;;;;19.88;12.23;;;;;;;;;;5032679;28;20052;-72
2021/09/18 01:32:49;;;;;;;23.17;12.43;;;;;;;;;;5033694;28;20040;-72
2021/09/18 01:35:53;;;;;;;18.02;12.75;;;;;;;;;;5033576;28;20048;-72
2021/09/18 01:38:58;;;;;;;21.95;13.23;;;;;;;;;;5033135;28;20049;-72
2021/09/18 01:42:02;;;;;;;21.08;12.65;;;;;;;;;;5033440;28;20057;-72
2021/09/18 01:45:06;;;;;;;19.45;12.57;;;;;;;;;;5033336;28;20064;-72
2021/09/18 01:48:15;;;;;;;18.15;12.93;;;;;;;;;;5033046;28;20040;-72
2021/09/18 01:51:20;;;;;;;26.40;12.25;;;;;;;;;;5033519;28;20401;-72
2021/09/18 01:54:24;;;;;;;25.40;12.95;;;;;;;;;;5033395;28;20056;-72
2021/09/18 01:57:29;;;;;;;23.50;12.63;;;;;;;;;;5032911;28;20048;-72
2021/09/18 02:00:37;;;;;;;22.55;12.95;;;;;;;;;;5033165;28;20044;-72
2021/09/18 02:03:41;;;;;;;20.05;13.10;;;;;;;;;;5032960;28;20508;-72
2021/09/18 02:06:45;;;;;;;18.38;13.15;;;;;;;;;;5032793;28;20385;-72
2021/09/18 02:09:49;;;;;;;17.77;12.18;;;;;;;;;;5032790;28;20056;-72
2021/09/18 02:12:54;;;;;;;22.50;13.27;;;;;;;;;;5032762;28;20045;-72
2021/09/18 02:15:58;;;;;;;25.08;12.98;;;;;;;;;;5032797;28;20053;-72
2021/09/18 02:19:02;;;;;;;19.83;13.15;;;;;;;;;;5032768;28;20405;-72
2021/09/18 02:22:06;;;;;;;22.10;13.55;;;;;;;;;;5032642;28;20056;-72
2021/09/18 02:25:11;;;;;;;28.83;14.80;;;;;;;;;;5032688;28;20392;-72
2021/09/18 02:28:16;;;;;;;26.05;13.38;;;;;;;;;;5032502;28;20036;-72
2021/09/18 02:31:20;;;;;;;22.58;13.70;;;;;;;;;;5031543;28;20375;-72
2021/09/18 02:34:25;;;;;;;25.33;14.60;;;;;;;;;;5031865;28;20049;-72
2021/09/18 02:37:29;;;;;;;22.55;14.07;;;;;;;;;;5032224;28;20496;-72
2021/09/18 02:40:36;;;;;;;26.77;14.32;;;;;;;;;;5032268;28;20052;-72
2021/09/18 02:43:40;;;;;;;30.40;14.32;;;;;;;;;;5032018;28;20753;-72
2021/09/18 02:46:44;;;;;;;20.58;14.68;;;;;;;;;;5032335;28;20048;-72
2021/09/18 02:49:48;;;;;;;24.00;14.52;;;;;;;;;;5031978;28;20535;-72
2021/09/18 02:52:53;;;;;;;22.38;13.40;;;;;;;;;;5031937;28;20041;-72
2021/09/18 02:55:59;;;;;;;26.63;13.65;;;;;;;;;;5032043;28;20053;-72
2021/09/18 02:59:03;;;;;;;23.88;14.85;;;;;;;;;;5031824;28;20389;-72
2021/09/18 03:02:08;;;;;;;23.30;13.60;;;;;;;;;;5031768;28;20043;-72
2021/09/18 03:05:12;;;;;;;22.20;13.88;;;;;;;;;;5031948;28;20527;-72
2021/09/18 03:08:17;;;;;;;24.48;14.02;;;;;;;;;;5031516;28;20060;-72
2021/09/18 03:11:21;;;;;;;25.27;13.25;;;;;;;;;;5030991;28;20060;-72
2021/09/18 03:14:25;;;;;;;24.88;14.57;;;;;;;;;;5031749;28;20044;-72
2021/09/18 03:17:31;;;;;;;24.48;14.43;;;;;;;;;;5030274;28;20045;-72
2021/09/18 03:20:35;;;;;;;23.08;14.60;;;;;;;;;;5030453;28;20040;-72
2021/09/18 03:23:40;;;;;;;23.55;13.90;;;;;;;;;;5031538;28;20048;-72
2021/09/18 03:26:44;;;;;;;24.63;14.57;;;;;;;;;;5031596;28;20523;-72
2021/09/18 03:29:48;;;;;;;25.00;14.57;;;;;;;;;;5031162;28;20052;-72
2021/09/18 03:32:52;;;;;;;22.55;14.90;;;;;;;;;;5031584;28;20044;-72
2021/09/18 03:35:57;;;;;;;26.38;14.75;;;;;;;;;;5031492;28;20049;-72
2021/09/18 03:39:02;;;;;;;27.55;14.90;;;;;;;;;;5031578;28;20041;-72
2021/09/18 03:42:06;;;;;;;27.48;16.40;;;;;;;;;;5030358;28;20044;-72
2021/09/18 03:45:10;;;;;;;26.73;15.23;;;;;;;;;;5031176;28;20044;-72
2021/09/18 03:48:14;;;;;;;26.77;15.32;;;;;;;;;;5030242;28;20041;-72
2021/09/18 03:51:19;;;;;;;31.05;14.48;;;;;;;;;;5031270;28;20060;-72
2021/09/18 03:54:23;;;;;;;23.80;14.98;;;;;;;;;;5031301;28;20064;-72
2021/09/18 03:57:28;;;;;;;32.42;15.00;;;;;;;;;;5031036;28;20160;-72
2021/09/18 04:00:32;;;;;;;26.30;14.73;;;;;;;;;;5029954;28;20049;-72
2021/09/18 04:03:36;;;;;;;25.45;14.65;;;;;;;;;;5031085;28;20196;-72
2021/09/18 04:06:40;;;;;;;31.67;15.45;;;;;;;;;;5030895;28;20044;-72
2021/09/18 04:09:45;;;;;;;31.65;15.70;;;;;;;;;;5029842;28;20520;-72
2021/09/18 04:12:49;;;;;;;24.38;15.23;;;;;;;;;;5030739;28;20040;-72
2021/09/18 04:15:54;;;;;;;25.92;15.70;;;;;;;;;;5030861;28;20099;-72
2021/09/18 04:18:58;;;;;;;30.40;14.85;;;;;;;;;;5030861;28;20064;-72
2021/09/18 04:22:03;;;;;;;22.30;14.98;;;;;;;;;;5030599;28;20036;-72
2021/09/18 04:25:07;;;;;;;25.65;15.63;;;;;;;;;;5030855;28;20049;-72
2021/09/18 04:28:12;;;;;;;30.83;16.55;;;;;;;;;;5030747;28;20040;-72
2021/09/18 04:31:16;;;;;;;29.35;17.77;;;;;;;;;;5034289;28;20060;-72
2021/09/18 04:34:20;;;;;;;29.80;15.93;;;;;;;;;;5034825;28;20044;-72
2021/09/18 04:37:25;;;;;;;21.40;16.55;;;;;;;;;;5034599;28;20049;-72
2021/09/18 04:40:29;;;;;;;25.25;15.23;;;;;;;;;;5034628;28;20044;-72
2021/09/18 04:43:33;;;;;;;24.05;15.93;;;;;;;;;;5034533;28;20397;-72
2021/09/18 04:46:37;;;;;;;31.63;16.50;;;;;;;;;;5034321;28;20045;-72
2021/09/18 04:49:42;;;;;;;32.78;17.40;;;;;;;;;;5034603;28;20060;-72
2021/09/18 04:52:46;;;;;;;29.05;17.38;;;;;;;;;;5033809;28;20148;-72
2021/09/18 04:55:50;;;;;;;25.13;16.42;;;;;;;;;;5034454;28;20045;-72
2021/09/18 04:58:55;;;;;;;36.10;16.35;;;;;;;;;;5034127;28;20048;-69
2021/09/18 05:01:59;;;;;;;25.90;15.85;;;;;;;;;;5034512;28;20496;-69
2021/09/18 05:05:03;;;;;;;24.77;15.93;;;;;;;;;;5034188;28;20040;-69
2021/09/18 05:08:08;;;;;;;48.40;21.15;;;;;;;;;;5033785;28;20235;-69
2021/09/18 05:11:12;;;;;;;25.10;15.68;;;;;;;;;;5034002;28;20053;-69
2021/09/18 05:14:17;;;;;;;33.00;16.45;;;;;;;;;;5033981;28;20045;-69
2021/09/18 05:17:21;;;;;;;28.80;15.43;;;;;;;;;;5034171;28;20048;-69
2021/09/18 05:20:26;;;;;;;28.73;15.73;;;;;;;;;;5033780;28;20053;-69
2021/09/18 05:23:30;;;;;;;24.50;14.10;;;;;;;;;;5033901;28;20043;-69
2021/09/18 05:26:36;;;;;;;20.85;13.57;;;;;;;;;;5033553;28;20052;-69
2021/09/18 05:29:43;;;;;;;31.83;15.25;;;;;;;;;;5033529;28;20056;-69
2021/09/18 05:32:47;;;;;;;28.70;15.68;;;;;;;;;;5033572;28;20045;-69
2021/09/18 05:35:51;;;;;;;23.70;15.38;;;;;;;;;;5033740;28;20656;-69
2021/09/18 05:38:55;;;;;;;29.88;15.63;;;;;;;;;;5033644;28;20048;-69
2021/09/18 05:42:00;;;;;;;23.42;14.10;;;;;;;;;;5033381;28;20056;-69
2021/09/18 05:45:05;;;;;;;23.10;15.18;;;;;;;;;;5033532;28;20052;-69
2021/09/18 05:48:10;;;;;;;27.38;14.30;;;;;;;;;;5033200;28;20040;-69
2021/09/18 05:51:15;;;;;;;34.45;16.00;;;;;;;;;;5032932;28;20053;-69
2021/09/18 05:54:19;;;;;;;30.05;16.63;;;;;;;;;;5033108;28;20048;-69
2021/09/18 05:57:23;;;;;;;38.78;16.10;;;;;;;;;;5033540;28;20048;-69
2021/09/18 06:00:28;;;;;;;24.80;14.77;;;;;;;;;;5033537;28;20041;-69
2021/09/18 06:03:32;;;;;;;28.75;15.40;;;;;;;;;;5033275;28;20056;-69
2021/09/18 06:06:37;;;;;;;24.95;13.90;;;;;;;;;;5032967;28;20044;-69
2021/09/18 06:09:41;;;;;;;32.47;14.45;;;;;;;;;;5032680;28;20064;-69
2021/09/18 06:12:45;;;;;;;27.77;14.50;;;;;;;;;;5032874;28;20040;-69
2021/09/18 06:15:50;;;;;;;24.23;14.23;;;;;;;;;;5032726;28;20041;-69
2021/09/18 06:18:54;;;;;;;35.05;15.00;;;;;;;;;;5032618;28;20524;-69
2021/09/18 06:21:58;;;;;;;26.98;14.95;;;;;;;;;;5032885;28;20057;-69
2021/09/18 06:25:03;;;;;;;22.45;14.05;;;;;;;;;;5032664;28;20048;-70
2021/09/18 06:28:07;;;;;;;30.08;13.57;;;;;;;;;;5031788;28;20036;-68
2021/09/18 06:31:12;;;;;;;29.25;14.45;;;;;;;;;;5032425;28;20405;-68
2021/09/18 06:34:16;;;;;;;24.88;13.15;;;;;;;;;;5032591;28;20496;-68
2021/09/18 06:37:20;;;;;;;21.15;11.77;;;;;;;;;;5032381;28;20393;-69
2021/09/18 06:40:25;;;;;;;24.15;13.50;;;;;;;;;;5032437;28;20057;-69
2021/09/18 06:43:32;;;;;;;27.23;13.82;;;;;;;;;;5032131;28;20041;-69
2021/09/18 06:46:36;;;;;;;31.05;11.70;;;;;;;;;;5031494;28;20061;-69
2021/09/18 06:49:41;;;;;;;26.23;12.05;;;;;;;;;;5032070;28;20068;-68
2021/09/18 06:52:45;;;;;;;29.65;12.93;;;;;;;;;;5031485;28;20557;-68
2021/09/18 06:55:50;;;;;;;28.90;11.43;;;;;;;;;;5031825;28;20052;-69
2021/09/18 06:58:55;;;;;;;25.45;11.30;;;;;;;;;;5031779;28;20052;-68
2021/09/18 07:02:00;;;;;;;25.83;11.63;;;;;;;;;;5031698;28;20048;-69
2021/09/18 07:05:05;;;;;;;23.83;11.73;;;;;;;;;;5031616;28;20397;-69
2021/09/18 07:08:09;;;;;;;34.88;11.70;;;;;;;;;;5031407;28;20417;-69
2021/09/18 07:11:14;;;;;;;24.45;11.70;;;;;;;;;;5031679;28;20056;-68
2021/09/18 07:14:18;;;;;;;19.95;11.38;;;;;;;;;;5031749;28;20504;-68
2021/09/18 07:17:22;;;;;;;18.33;10.52;;;;;;;;;;5031509;28;20048;-69
2021/09/18 07:20:27;;;;;;;21.38;11.15;;;;;;;;;;5030589;28;20508;-69
2021/09/18 07:23:31;;;;;;;27.15;10.63;;;;;;;;;;5031613;28;20045;-69
2021/09/18 07:26:36;;;;;;;28.65;12.73;;;;;;;;;;5031225;28;20109;-69
2021/09/18 07:29:40;;;;;;;27.17;11.43;;;;;;;;;;5031173;28;20052;-69
2021/09/18 07:32:45;;;;;;;25.35;11.40;;;;;;;;;;5031613;28;20048;-68
2021/09/18 07:35:49;;;;;;;25.83;10.57;;;;;;;;;;5031236;28;20398;-69
2021/09/18 07:38:53;;;;;;;18.02;10.10;;;;;;;;;;5031450;28;20052;-69
2021/09/18 07:41:58;;;;;;;39.30;10.52;;;;;;;;;;5030965;28;20543;-69
2021/09/18 07:45:03;;;;;;;20.58;10.32;;;;;;;;;;5031196;28;20041;-69
2021/09/18 07:48:07;;;;;;;27.42;10.35;;;;;;;;;;5030857;28;20052;-69
2021/09/18 07:51:12;;;;;;;25.10;10.73;;;;;;;;;;5030772;28;20053;-69
2021/09/18 07:54:16;;;;;;;41.35;11.02;;;;;;;;;;5031215;28;20040;-69
2021/09/18 07:57:21;;;;;;;23.77;9.88;;;;;;;;;;5031064;28;20507;-69
2021/09/18 08:00:27;;;;;;;17.55;9.60;;;;;;;;;;5030837;28;20037;-69
2021/09/18 08:03:31;;;;;;;20.73;10.02;;;;;;;;;;5030732;28;20485;-69
2021/09/18 08:06:36;;;;;;;19.52;9.38;;;;;;;;;;5030509;28;20044;-70
2021/09/18 08:09:40;;;;;;;21.20;9.48;;;;;;;;;;5031312;28;20050;-70
2021/09/18 08:12:48;;;;;;;17.95;9.48;;;;;;;;;;5030652;28;20037;-70
2021/09/18 08:15:52;;;;;;;20.60;9.02;;;;;;;;;;5030750;28;20037;-70
2021/09/18 08:18:56;;;;;;;20.60;9.70;;;;;;;;;;5030623;28;20038;-70
2021/09/18 08:22:01;;;;;;;20.08;9.57;;;;;;;;;;5030877;28;20037;-70
2021/09/18 08:25:06;;;;;;;18.45;9.40;;;;;;;;;;5030701;28;20045;-70
2021/09/18 08:28:11;;;;;;;22.65;9.23;;;;;;;;;;5030950;28;20045;-70
2021/09/18 08:31:15;;;;;;;18.73;9.07;;;;;;;;;;5030509;28;20494;-70
2021/09/18 08:34:20;;;;;;;16.80;8.43;;;;;;;;;;5030467;28;20045;-70
2021/09/18 08:37:24;;;;;;;22.98;9.05;;;;;;;;;;5030446;28;20037;-70
2021/09/18 08:40:28;;;;;;;27.60;10.00;;;;;;;;;;5030388;28;20038;-70
2021/09/18 08:43:32;;;;;;;17.40;9.57;;;;;;;;;;5030237;28;20559;-70
2021/09/18 08:46:37;;;;;;;17.45;9.80;;;;;;;;;;5029398;28;20034;-70
2021/09/18 08:49:42;;;;;;;25.48;10.23;;;;;;;;;;5030315;28;20037;-70
2021/09/18 08:52:46;;;;;;;19.35;10.20;;;;;;;;;;5030491;28;20052;-70
2021/09/18 08:55:54;;;;;;;25.10;10.25;;;;;;;;;;5030327;28;20040;-70
2021/09/18 08:58:59;;;;;;;21.65;8.88;;;;;;;;;;5030636;28;20053;-70
2021/09/18 09:02:19;;;;;;;17.48;9.57;;;;;;;;;;5030434;28;20037;-70
2021/09/18 09:05:27;;;;;;;15.77;8.07;;;;;;;;;;5030714;28;20049;-70
2021/09/18 09:08:31;;;;;;;17.15;8.63;;;;;;;;;;5030532;28;20041;-70
2021/09/18 09:11:36;;;;;;;19.98;9.50;;;;;;;;;;5030586;28;20042;-70
2021/09/18 09:14:46;;;;;;;19.50;9.20;;;;;;;;;;5030470;28;20033;-70
2021/09/18 09:17:53;;;;;;;19.02;9.30;;;;;;;;;;5034077;28;20060;-70
2021/09/18 09:21:12;;;;;;;16.38;9.43;;;;;;;;;;5034170;28;20037;-69
2021/09/18 09:24:18;;;;;;;15.88;8.75;;;;;;;;;;5033667;28;20038;-70
2021/09/18 09:27:22;;;;;;;18.98;9.35;;;;;;;;;;5033453;28;20042;-70
2021/09/18 09:30:28;;;;;;;16.15;8.85;;;;;;;;;;5033737;28;20053;-69
2021/09/18 09:33:32;;;;;;;20.88;9.40;;;;;;;;;;5033795;28;20041;-70
2021/09/18 09:36:39;;;;;;;20.70;8.80;;;;;;;;;;5033622;28;20041;-70
2021/09/18 09:39:49;;;;;;;18.90;9.15;;;;;;;;;;5033567;28;20045;-70
2021/09/18 09:42:56;;;;;;;19.40;11.13;;;;;;;;;;5034859;28;20033;-70
2021/09/18 09:46:00;;;;;;;23.10;9.63;;;;;;;;;;5033282;28;20045;-70
2021/09/18 09:49:04;;;;;;;29.63;11.50;;;;;;;;;;5033227;28;20041;-70
2021/09/18 09:52:22;;;;;;;15.68;9.38;;;;;;;;;;5032919;28;20061;-70
2021/09/18 09:55:27;;;;;;;17.38;8.90;;;;;;;;;;5031866;28;20041;-70
2021/09/18 09:58:50;;;;;;;23.60;9.30;;;;;;;;;;5033128;28;20042;-69
2021/09/18 10:01:55;;;;;;;25.65;10.48;;;;;;;;;;5032828;28;20144;-70
2021/09/18 10:04:59;;;;;;;20.33;10.18;;;;;;;;;;5032122;28;20045;-70
2021/09/18 10:08:04;;;;;;;20.15;8.57;;;;;;;;;;5032577;28;20056;-70
2021/09/18 10:11:09;;;;;;;24.50;7.75;;;;;;;;;;5032784;28;20053;-70
2021/09/18 10:14:14;;;;;;;22.83;7.70;;;;;;;;;;5032797;28;20034;-70
2021/09/18 10:17:19;;;;;;;19.70;7.65;;;;;;;;;;5032717;28;20041;-70
2021/09/18 10:23:42;;;;;;;26.83;8.73;;;;;;;;;;5068696;28;20037;-69
2021/09/18 10:27:13;;;;;;;22.42;7.57;;;;;;;;;;5068176;28;20033;-70
2021/09/18 10:30:29;;;;;;;21.02;7.45;;;;;;;;;;5067894;28;20049;-69
2021/09/18 10:33:36;;;;;;;22.10;7.00;;;;;;;;;;5067897;28;20374;-69
2021/09/18 10:36:40;;;;;;;16.38;7.70;;;;;;;;;;5055486;28;20045;-69
2021/09/18 10:40:00;;;;;;;30.15;7.78;;;;;;;;;;5067678;28;20045;-69
2021/09/18 10:43:04;;;;;;;25.33;6.55;;;;;;;;;;5067937;28;20032;-69
2021/09/18 10:46:10;;;;;;;13.07;5.13;;;;;;;;;;5067668;28;20044;-69
2021/09/18 10:49:37;;;;;;;18.70;5.80;;;;;;;;;;5067623;28;20037;-69
2021/09/18 10:52:41;;;;;;;22.65;6.43;;;;;;;;;;5067711;28;20037;-69
2021/09/18 10:55:19;;;;;;;13.88;6.18;;;;;;;;;;5108604;27;20129;-69
2021/09/18 10:57:56;;;;;;;18.70;6.45;;;;;;;;;;5068054;28;20386;-70
2021/09/18 11:00:38;;;;;;;19.85;6.60;;;;;;;;;;5068458;28;20398;-68
2021/09/18 11:03:31;;;;;;;19.90;6.50;;;;;;;;;;5108959;27;20925;-70
2021/09/18 11:06:09;;;;;;;27.30;7.25;;;;;;;;;;5068264;28;20945;-71
2021/09/18 11:08:53;;;;;;;12.75;5.20;;;;;;;;;;5068267;28;20397;-71
2021/09/18 11:11:31;;;;;;;13.98;5.93;;;;;;;;;;5068342;28;20390;-70
2021/09/18 11:14:10;;;;;;;24.60;6.20;;;;;;;;;;5068347;28;20452;-71
2021/09/18 11:16:49;;;;;;;17.95;6.28;;;;;;;;;;5068035;28;20397;-71
2021/09/18 11:19:27;;;;;;;18.02;6.20;;;;;;;;;;5143500;27;20131;-71
2021/09/18 11:22:11;;;;;;;15.38;5.85;;;;;;;;;;5068300;28;20770;-69
2021/09/18 11:24:50;;;;;;;15.88;5.78;;;;;;;;;;5068521;28;20383;-69
2021/09/18 11:27:35;;;;;;;23.35;5.10;;;;;;;;;;5068282;28;20387;-70
2021/09/18 11:30:13;;;;;;;17.90;6.40;;;;;;;;;;5109079;27;20406;-70
2021/09/18 11:32:51;;;;;;;19.35;6.70;;;;;;;;;;5068325;28;20398;-68
2021/09/18 11:35:30;;;;;;;14.63;6.97;;;;;;;;;;5068357;28;20452;-70
2021/09/18 11:38:09;;;;;;;17.33;5.93;;;;;;;;;;5068317;28;20393;-70
2021/09/18 11:40:46;;;;;;;21.77;6.47;;;;;;;;;;5068408;28;20504;-69
2021/09/18 11:43:26;;;;;;;24.13;6.72;;;;;;;;;;5108897;27;20929;-69
2021/09/18 11:46:04;;;;;;;25.30;7.18;;;;;;;;;;5068377;28;20394;-71
2021/09/18 11:48:42;;;;;;;18.80;6.78;;;;;;;;;;5068404;28;20391;-70
2021/09/18 11:51:20;;;;;;;17.25;6.80;;;;;;;;;;5068380;28;20390;-69
2021/09/18 11:54:00;;;;;;;17.58;6.55;;;;;;;;;;5106329;27;1338650;-71
2021/09/18 11:56:38;;;;;;;19.30;6.00;;;;;;;;;;5109052;27;20388;-71
2021/09/18 11:59:17;;;;;;;26.45;6.95;;;;;;;;;;5068565;28;20440;-70
2021/09/18 12:01:54;;;;;;;16.02;7.00;;;;;;;;;;5107325;27;1312481;-70
2021/09/18 12:04:44;;;;;;;15.98;6.47;;;;;;;;;;5068519;28;20394;-68
2021/09/18 12:07:21;;;;;;;33.42;7.47;;;;;;;;;;5109056;27;20763;-71
2021/09/18 12:09:59;;;;;;;22.40;6.60;;;;;;;;;;5068335;28;20383;-69
2021/09/18 12:12:37;;;;;;;22.85;7.10;;;;;;;;;;5068462;28;20428;-70
2021/09/18 12:15:16;;;;;;;16.15;5.50;;;;;;;;;;5068295;28;20390;-70
2021/09/18 12:17:54;;;;;;;28.42;7.78;;;;;;;;;;5129061;27;20443;-70
2021/09/18 12:20:32;;;;;;;21.60;7.90;;;;;;;;;;5068472;28;20448;-68
2021/09/18 12:23:10;;;;;;;24.58;6.72;;;;;;;;;;5068059;28;20386;-70
2021/09/18 12:25:52;;;;;;;21.90;6.03;;;;;;;;;;5068370;28;20383;-69
2021/09/18 12:28:31;;;;;;;18.70;5.70;;;;;;;;;;5108870;27;20717;-68
2021/09/18 12:31:22;;;;;;;26.75;6.65;;;;;;;;;;5068223;28;20398;-70
2021/09/18 12:34:07;;;;;;;19.48;6.40;;;;;;;;;;5068533;28;20390;-69
2021/09/18 12:36:46;;;;;;;23.38;7.55;;;;;;;;;;5068285;28;20398;-69
2021/09/18 12:39:27;;;;;;;19.52;7.35;;;;;;;;;;5068252;28;20391;-70
2021/09/18 12:42:05;;;;;;;27.48;6.68;;;;;;;;;;5068457;28;20409;-70
2021/09/18 12:44:43;;;;;;;23.80;7.10;;;;;;;;;;5068390;28;20390;-68
2021/09/18 12:47:22;;;;;;;19.90;6.47;;;;;;;;;;5088578;27;20446;-69
2021/09/18 12:50:14;;;;;;;33.30;7.80;;;;;;;;;;5068438;28;20393;-69
2021/09/18 12:52:52;;;;;;;28.02;9.98;;;;;;;;;;5068494;28;20386;-69
2021/09/18 12:55:30;;;;;;;24.13;7.80;;;;;;;;;;5068203;28;20389;-69
2021/09/18 12:58:27;;;;;;;23.08;6.65;;;;;;;;;;5068469;28;20395;-69
2021/09/18 13:01:05;;;;;;;23.73;6.47;;;;;;;;;;5068504;28;20390;-70
2021/09/18 13:03:42;;;;;;;49.40;8.35;;;;;;;;;;5068715;28;20394;-68
2021/09/18 13:06:20;;;;;;;33.95;7.20;;;;;;;;;;5068459;28;20402;-68
2021/09/18 13:09:01;;;;;;;25.63;6.78;;;;;;;;;;5068328;28;20452;-70
2021/09/18 13:11:48;;;;;;;16.38;6.15;;;;;;;;;;5068527;28;20996;-70
2021/09/18 13:14:31;;;;;;;19.75;5.97;;;;;;;;;;5068514;28;20440;-70
2021/09/18 13:17:11;;;;;;;28.45;6.68;;;;;;;;;;5068279;28;20386;-68
2021/09/18 13:20:05;;;;;;;23.08;6.78;;;;;;;;;;5068593;28;20395;-70
2021/09/18 13:22:45;;;;;;;26.30;6.82;;;;;;;;;;5068351;28;20802;-69
2021/09/18 13:25:23;;;;;;;31.52;6.93;;;;;;;;;;5067860;28;20413;-69
2021/09/18 13:28:01;;;;;;;24.67;7.78;;;;;;;;;;5109088;27;20414;-70
2021/09/18 13:30:39;;;;;;;26.27;6.60;;;;;;;;;;5109434;27;20388;-68
2021/09/18 13:33:18;;;;;;;24.08;6.53;;;;;;;;;;5068383;28;20398;-68
2021/09/18 13:35:56;;;;;;;20.75;6.57;;;;;;;;;;5068206;28;20399;-70
2021/09/18 13:38:36;;;;;;;26.05;6.85;;;;;;;;;;5068533;28;20909;-69
2021/09/18 13:41:14;;;;;;;28.95;9.60;;;;;;;;;;5066938;28;20846;-70
2021/09/18 13:43:52;;;;;;;20.73;6.45;;;;;;;;;;5068035;28;20393;-70
2021/09/18 13:46:29;;;;;;;21.10;6.32;;;;;;;;;;5107031;27;1312407;-70
2021/09/18 13:49:07;;;;;;;25.17;7.40;;;;;;;;;;5068160;28;20452;-69
2021/09/18 13:51:45;;;;;;;31.13;7.95;;;;;;;;;;5068416;28;20390;-70
2021/09/18 13:54:23;;;;;;;31.33;7.70;;;;;;;;;;5068400;28;20909;-68
2021/09/18 13:57:02;;;;;;;26.00;7.00;;;;;;;;;;5107912;27;20387;-69
2021/09/18 13:59:40;;;;;;;21.60;6.47;;;;;;;;;;5067852;28;20390;-69
2021/09/18 14:02:18;;;;;;;21.20;7.72;;;;;;;;;;5068139;28;20397;-69
2021/09/18 14:04:56;;;;;;;22.90;7.30;;;;;;;;;;5067346;28;20391;-70
2021/09/18 14:07:34;;;;;;;19.30;7.30;;;;;;;;;;5108433;27;20409;-70
2021/09/18 14:10:13;;;;;;;20.70;7.30;;;;;;;;;;5067598;28;20397;-70
2021/09/18 14:12:51;;;;;;;22.95;6.93;;;;;;;;;;5066775;28;20442;-71
2021/09/18 14:15:29;;;;;;;18.85;6.78;;;;;;;;;;5067466;28;20402;-71
2021/09/18 14:18:09;;;;;;;25.98;6.95;;;;;;;;;;5068108;28;20399;-71
2021/09/18 14:20:47;;;;;;;20.75;7.57;;;;;;;;;;5068280;28;20390;-67
2021/09/18 14:23:26;;;;;;;24.88;7.53;;;;;;;;;;5068290;28;20983;-64
2021/09/18 14:26:04;;;;;;;21.73;7.95;;;;;;;;;;5068457;28;20390;-65
2021/09/18 14:28:42;;;;;;;14.70;6.35;;;;;;;;;;5088582;28;20965;-66
2021/09/18 14:31:20;;;;;;;20.02;7.25;;;;;;;;;;5068426;28;20397;-66
2021/09/18 14:33:58;;;;;;;21.65;7.25;;;;;;;;;;5068435;28;20391;-66
2021/09/18 14:36:36;;;;;;;23.95;7.40;;;;;;;;;;5067744;28;20397;-67
2021/09/18 14:39:14;;;;;;;23.30;8.68;;;;;;;;;;5068160;28;20395;-66
2021/09/18 14:41:53;;;;;;;21.85;7.07;;;;;;;;;;5068491;28;20398;-68
2021/09/18 14:44:31;;;;;;;23.58;7.30;;;;;;;;;;5068213;28;20386;-66
2021/09/18 14:47:09;;;;;;;17.70;7.47;;;;;;;;;;5149737;27;20388;-67
2021/09/18 14:49:47;;;;;;;22.42;6.68;;;;;;;;;;5067863;28;20413;-67
2021/09/18 14:52:26;;;;;;;18.25;6.82;;;;;;;;;;5068027;28;20394;-68
2021/09/18 14:55:05;;;;;;;18.70;7.13;;;;;;;;;;5067905;28;20432;-68
2021/09/18 14:57:43;;;;;;;20.23;7.25;;;;;;;;;;5067860;28;20410;-70
2021/09/18 15:00:22;;;;;;;22.50;7.40;;;;;;;;;;5068147;28;20420;-67
2021/09/18 15:03:00;;;;;;;26.75;7.97;;;;;;;;;;5068171;28;20390;-68
2021/09/18 15:05:38;;;;;;;28.02;8.52;;;;;;;;;;5067874;28;20391;-66
2021/09/18 15:08:16;;;;;;;20.65;7.30;;;;;;;;;;5067999;28;20394;-66
2021/09/18 15:10:54;;;;;;;25.48;7.50;;;;;;;;;;5067901;28;20450;-69
2021/09/18 15:13:33;;;;;;;20.88;6.93;;;;;;;;;;5108496;27;20387;-69
2021/09/18 15:16:11;;;;;;;22.25;7.55;;;;;;;;;;5067760;28;20395;-68
2021/09/18 15:18:49;;;;;;;26.40;7.97;;;;;;;;;;5067822;28;20940;-67
2021/09/18 15:21:27;;;;;;;24.63;7.32;;;;;;;;;;5067995;28;20813;-69
2021/09/18 15:24:06;;;;;;;20.05;7.18;;;;;;;;;;5067931;28;20389;-68
2021/09/18 15:26:44;;;;;;;20.33;7.60;;;;;;;;;;5106425;27;1323844;-68
2021/09/18 15:29:22;;;;;;;22.65;7.43;;;;;;;;;;5068104;28;20454;-69
2021/09/18 15:32:00;;;;;;;28.27;8.70;;;;;;;;;;5067961;28;20382;-68
2021/09/18 15:34:38;;;;;;;26.25;8.48;;;;;;;;;;5128752;27;20420;-68
2021/09/18 15:37:16;;;;;;;23.55;8.15;;;;;;;;;;5108147;27;20383;-66
2021/09/18 15:39:56;;;;;;;21.20;8.48;;;;;;;;;;5067988;28;20441;-67
2021/09/18 15:42:33;;;;;;;26.52;9.45;;;;;;;;;;5129023;27;20378;-66
2021/09/18 15:45:11;;;;;;;29.48;9.05;;;;;;;;;;5067939;28;20391;-64
2021/09/18 15:47:49;;;;;;;23.08;9.75;;;;;;;;;;5067804;28;20394;-66
2021/09/18 15:50:27;;;;;;;22.75;9.10;;;;;;;;;;5088024;28;20393;-66
2021/09/18 15:53:06;;;;;;;25.92;9.38;;;;;;;;;;5067831;28;20399;-68
2021/09/18 15:55:44;;;;;;;23.25;8.88;;;;;;;;;;5067685;28;20391;-69
2021/09/18 15:58:22;;;;;;;21.67;8.38;;;;;;;;;;5068030;28;20464;-70
2021/09/18 16:01:04;;;;;;;21.92;8.48;;;;;;;;;;5068124;28;20922;-70
2021/09/18 16:03:42;;;;;;;33.03;9.30;;;;;;;;;;5108302;27;20467;-68
2021/09/18 16:06:20;;;;;;;26.90;9.70;;;;;;;;;;5067830;28;20929;-69
2021/09/18 16:08:58;;;;;;;28.10;9.85;;;;;;;;;;5067725;28;20390;-69
2021/09/18 16:11:36;;;;;;;29.13;10.57;;;;;;;;;;5108316;27;20391;-70
2021/09/18 16:14:15;;;;;;;22.10;10.15;;;;;;;;;;5067282;28;20929;-66
2021/09/18 16:16:53;;;;;;;24.60;11.02;;;;;;;;;;5065853;28;20805;-66
2021/09/18 16:19:32;;;;;;;23.85;9.40;;;;;;;;;;5190750;27;20135;-65
2021/09/18 16:22:09;;;;;;;28.25;9.63;;;;;;;;;;5067055;28;20383;-66
2021/09/18 16:24:47;;;;;;;27.38;9.85;;;;;;;;;;5108158;27;20380;-67
2021/09/18 16:27:26;;;;;;;23.23;9.15;;;;;;;;;;5085846;28;20389;-65
2021/09/18 16:30:05;;;;;;;25.00;9.82;;;;;;;;;;5108093;27;20388;-67
2021/09/18 16:32:44;;;;;;;23.35;10.15;;;;;;;;;;5047879;28;20388;-66
2021/09/18 16:35:22;;;;;;;25.65;10.20;;;;;;;;;;5067809;28;20383;-67
2021/09/18 16:38:00;;;;;;;30.30;10.23;;;;;;;;;;5170448;27;20777;-65
2021/09/18 16:40:38;;;;;;;30.38;11.63;;;;;;;;;;5068073;28;20926;-65
2021/09/18 16:43:16;;;;;;;23.02;9.85;;;;;;;;;;5068075;28;20391;-66
2021/09/18 16:45:55;;;;;;;27.02;10.32;;;;;;;;;;5108370;27;20406;-67
2021/09/18 16:48:33;;;;;;;27.38;11.35;;;;;;;;;;5047893;28;20391;-66
2021/09/18 16:51:11;;;;;;;30.90;11.88;;;;;;;;;;5066362;28;20394;-65
2021/09/18 16:53:49;;;;;;;27.05;11.23;;;;;;;;;;5067794;28;20393;-65
2021/09/18 16:56:27;;;;;;;27.25;11.10;;;;;;;;;;5066893;28;20405;-65
2021/09/18 16:59:05;;;;;;;25.55;11.52;;;;;;;;;;5067680;28;20397;-67
2021/09/18 17:01:44;;;;;;;22.95;10.60;;;;;;;;;;5067749;28;20387;-66
2021/09/18 17:04:22;;;;;;;26.17;13.45;;;;;;;;;;5067504;28;20757;-67
2021/09/18 17:07:00;;;;;;;29.65;12.30;;;;;;;;;;5087612;27;20483;-65